Time;durP1;ratioP1;P1;durP2;ratioP2;P2;SDS_P1;SDS_P2;PMS_P1;PMS_P2;Temp;Humidity;BMP_temperature;BMP_pressure;BME280_temperature;BME280_humidity;BME280_pressure;Samples;Min_cycle;Max_cycle;Signal;HPM_P1;HPM_P2
2023/04/28 00:01:18;;;;;;;5.90;5.30;;;12.30;99.90;;;;;;4883669;29;20282;-61
2023/04/28 00:03:43;;;;;;;6.10;5.60;;;12.40;99.90;;;;;;4886627;29;20440;-61
2023/04/28 00:06:10;;;;;;;6.40;4.70;;;12.10;99.90;;;;;;4886560;29;20198;-61
2023/04/28 00:08:36;;;;;;;8.13;4.63;;;12.40;99.90;;;;;;4883522;29;20488;-61
2023/04/28 00:11:02;;;;;;;5.70;5.20;;;12.60;99.90;;;;;;4887117;29;20194;-59
2023/04/28 00:13:27;;;;;;;6.30;4.73;;;12.40;99.90;;;;;;4883907;29;20246;-61
2023/04/28 00:15:53;;;;;;;7.30;5.03;;;12.80;99.90;;;;;;4887267;29;20635;-59
2023/04/28 00:18:19;;;;;;;5.60;5.10;;;12.70;99.90;;;;;;4902113;29;20660;-59
2023/04/28 00:20:45;;;;;;;6.00;5.50;;;12.70;99.90;;;;;;4885971;29;20198;-60
2023/04/28 00:23:10;;;;;;;10.70;5.80;;;12.60;99.90;;;;;;4885199;29;20194;-60
2023/04/28 00:25:36;;;;;;;9.43;5.60;;;12.90;99.90;;;;;;4883525;29;20290;-59
2023/04/28 00:28:02;;;;;;;6.13;5.53;;;12.90;99.90;;;;;;4889071;29;20580;-59
2023/04/28 00:30:29;;;;;;;6.33;5.70;;;12.90;99.90;;;;;;4888946;29;20215;-59
2023/04/28 00:32:55;;;;;;;7.50;5.72;;;12.80;99.90;;;;;;4887255;29;20199;-60
2023/04/28 00:35:21;;;;;;;6.00;5.40;;;12.90;99.90;;;;;;4889442;29;20458;-59
2023/04/28 00:37:46;;;;;;;6.03;5.43;;;12.80;99.90;;;;;;4887373;29;20183;-60
2023/04/28 00:40:12;;;;;;;10.47;4.90;;;13.20;99.90;;;;;;4888145;29;20294;-59
2023/04/28 00:42:38;;;;;;;6.30;5.70;;;13.20;99.90;;;;;;4888830;29;20657;-59
2023/04/28 00:45:06;;;;;;;6.70;5.60;;;13.10;99.80;;;;;;4887965;29;20454;-59
2023/04/28 00:47:33;;;;;;;6.13;5.10;;;13.10;99.50;;;;;;4889931;29;20195;-61
2023/04/28 00:50:00;;;;;;;5.93;5.30;;;12.90;99.20;;;;;;4888100;29;20204;-59
2023/04/28 00:52:26;;;;;;;8.50;5.30;;;13.10;99.40;;;;;;4885489;29;20689;-59
2023/04/28 00:54:52;;;;;;;5.93;5.25;;;13.30;99.60;;;;;;4888411;29;20192;-59
2023/04/28 00:57:18;;;;;;;5.63;5.03;;;13.10;99.40;;;;;;4887764;29;20207;-60
2023/04/28 00:59:44;;;;;;;7.67;5.30;;;13.10;99.30;;;;;;4888552;29;20211;-59
2023/04/28 01:02:16;;;;;;;6.50;5.60;;;13.20;99.30;;;;;;4889474;29;20995;-60
2023/04/28 01:04:45;;;;;;;5.95;5.30;;;13.40;99.60;;;;;;4889394;29;20447;-59
2023/04/28 01:07:10;;;;;;;6.22;5.63;;;13.20;99.40;;;;;;4892737;29;20278;-60
2023/04/28 01:09:36;;;;;;;5.93;5.33;;;13.20;99.60;;;;;;4891166;29;20310;-60
2023/04/28 01:12:02;;;;;;;8.90;5.80;;;13.20;99.60;;;;;;4892187;29;20439;-60
2023/04/28 01:14:28;;;;;;;7.03;5.30;;;13.20;99.50;;;;;;4891075;29;20274;-59
2023/04/28 01:16:54;;;;;;;6.73;5.63;;;13.20;99.50;;;;;;4889562;29;20215;-59
2023/04/28 01:19:23;;;;;;;5.50;5.00;;;13.50;99.60;;;;;;4885854;29;20213;-60
2023/04/28 01:21:49;;;;;;;7.28;5.00;;;13.20;99.00;;;;;;4888228;29;20534;-61
2023/04/28 01:24:16;;;;;;;6.20;5.22;;;13.60;98.90;;;;;;4890991;29;20418;-61
2023/04/28 01:26:41;;;;;;;5.75;5.25;;;13.50;98.80;;;;;;4890124;29;20557;-59
2023/04/28 01:29:07;;;;;;;6.13;5.53;;;13.40;98.60;;;;;;4889442;29;20214;-59
2023/04/28 01:31:32;;;;;;;6.33;5.73;;;13.40;98.50;;;;;;4889823;29;20721;-59
2023/04/28 01:33:58;;;;;;;6.27;5.77;;;13.60;98.70;;;;;;4891667;29;20694;-59
2023/04/28 01:36:26;;;;;;;8.00;5.70;;;13.30;98.80;;;;;;4902713;29;20222;-60
2023/04/28 01:38:51;;;;;;;7.38;6.15;;;13.10;99.00;;;;;;4894141;29;20206;-60
2023/04/28 01:41:17;;;;;;;6.00;5.40;;;13.50;99.30;;;;;;4889214;29;20188;-60
2023/04/28 01:43:43;;;;;;;6.03;5.53;;;13.40;99.30;;;;;;4891048;29;20226;-59
2023/04/28 01:46:09;;;;;;;9.13;5.87;;;13.20;99.30;;;;;;4885080;29;20195;-59
2023/04/28 01:48:35;;;;;;;6.22;5.63;;;13.20;99.30;;;;;;4889782;29;20681;-61
2023/04/28 01:51:01;;;;;;;6.33;5.30;;;13.40;99.70;;;;;;4891035;29;20199;-59
2023/04/28 01:53:26;;;;;;;6.80;5.30;;;13.20;99.50;;;;;;4889172;29;20199;-59
2023/04/28 01:55:52;;;;;;;6.70;5.13;;;13.30;99.70;;;;;;4892322;29;20502;-59
2023/04/28 01:58:18;;;;;;;5.25;4.75;;;13.00;99.70;;;;;;4890700;29;20587;-59
2023/04/28 02:00:44;;;;;;;5.80;5.23;;;13.00;99.70;;;;;;4891654;29;20190;-60
2023/04/28 02:03:10;;;;;;;5.80;5.30;;;12.90;99.80;;;;;;4890891;29;20199;-60
2023/04/28 02:05:36;;;;;;;5.73;5.03;;;13.10;99.90;;;;;;4892036;29;20195;-59
2023/04/28 02:08:01;;;;;;;7.70;4.70;;;13.20;99.90;;;;;;4889399;29;20203;-59
2023/04/28 02:10:27;;;;;;;6.20;4.93;;;13.00;99.90;;;;;;4888520;29;20463;-60
2023/04/28 02:12:53;;;;;;;5.80;4.70;;;13.20;99.90;;;;;;4890148;29;20198;-60
2023/04/28 02:15:18;;;;;;;5.63;5.07;;;13.00;99.90;;;;;;4886305;29;20475;-60
2023/04/28 02:17:44;;;;;;;5.60;5.07;;;13.10;99.90;;;;;;4885872;29;20327;-60
2023/04/28 02:20:10;;;;;;;7.00;4.87;;;13.10;99.90;;;;;;4887559;29;20210;-59
2023/04/28 02:22:36;;;;;;;6.15;5.00;;;13.40;99.90;;;;;;4889403;29;20218;-60
2023/04/28 02:25:02;;;;;;;4.47;4.07;;;13.00;99.70;;;;;;4891782;29;20577;-59
2023/04/28 02:27:27;;;;;;;4.90;4.17;;;13.20;99.70;;;;;;4889670;29;20306;-59
2023/04/28 02:29:53;;;;;;;5.03;4.27;;;13.30;99.80;;;;;;4887940;29;20468;-59
2023/04/28 02:32:18;;;;;;;6.50;4.77;;;13.20;99.60;;;;;;4890714;29;20206;-59
2023/04/28 02:34:44;;;;;;;8.13;4.77;;;13.20;99.60;;;;;;4888622;29;20191;-59
2023/04/28 02:37:10;;;;;;;4.47;4.07;;;13.30;99.70;;;;;;4890978;29;20195;-60
2023/04/28 02:39:36;;;;;;;4.67;4.23;;;13.20;99.50;;;;;;4889439;29;20551;-59
2023/04/28 02:42:04;;;;;;;4.80;4.40;;;13.20;99.50;;;;;;4889584;29;20207;-60
2023/04/28 02:44:30;;;;;;;5.40;4.75;;;13.60;99.70;;;;;;4890935;29;20234;-59
2023/04/28 02:46:55;;;;;;;4.90;4.00;;;13.30;99.50;;;;;;4888788;29;20648;-59
2023/04/28 02:49:21;;;;;;;8.47;4.70;;;13.60;99.60;;;;;;4890615;29;20540;-60
2023/04/28 02:51:46;;;;;;;4.40;4.00;;;13.40;99.60;;;;;;4889534;29;20685;-59
2023/04/28 02:54:12;;;;;;;4.60;4.13;;;13.30;99.90;;;;;;4885163;29;20536;-59
2023/04/28 02:56:39;;;;;;;6.03;3.87;;;13.40;99.90;;;;;;4887264;29;20207;-59
2023/04/28 02:59:06;;;;;;;4.35;4.05;;;13.40;99.90;;;;;;4888844;29;20306;-59
2023/04/28 03:01:31;;;;;;;5.68;4.03;;;13.10;99.90;;;;;;4901824;29;20195;-59
2023/04/28 03:03:57;;;;;;;4.57;4.17;;;13.10;99.90;;;;;;4889300;29;20329;-60
2023/04/28 03:06:23;;;;;;;4.50;4.10;;;13.30;99.90;;;;;;4887831;29;20306;-60
2023/04/28 03:08:48;;;;;;;4.67;4.27;;;13.30;99.90;;;;;;4889421;29;20764;-60
2023/04/28 03:11:14;;;;;;;6.23;4.00;;;13.20;99.90;;;;;;4885147;29;20187;-59
2023/04/28 03:13:40;;;;;;;4.00;3.60;;;13.30;99.90;;;;;;4891356;29;20255;-60
2023/04/28 03:16:06;;;;;;;4.30;3.90;;;13.60;99.90;;;;;;4884732;29;20262;-60
2023/04/28 03:18:32;;;;;;;4.90;4.40;;;13.40;99.90;;;;;;4889666;29;20600;-60
2023/04/28 03:20:58;;;;;;;4.50;4.10;;;13.60;99.90;;;;;;4887196;29;20190;-60
2023/04/28 03:23:23;;;;;;;4.37;3.97;;;13.30;99.90;;;;;;4890524;29;20191;-60
2023/04/28 03:25:49;;;;;;;4.87;4.37;;;13.40;99.90;;;;;;4888030;29;20294;-59
2023/04/28 03:28:15;;;;;;;5.20;4.40;;;13.00;99.90;;;;;;4889667;29;20214;-59
2023/04/28 03:30:40;;;;;;;4.73;3.93;;;13.20;99.90;;;;;;4887720;29;20455;-59
2023/04/28 03:33:06;;;;;;;4.53;4.10;;;13.20;99.90;;;;;;4889824;29;20199;-60
2023/04/28 03:35:31;;;;;;;4.70;4.30;;;13.20;99.90;;;;;;4892501;29;20222;-59
2023/04/28 03:37:57;;;;;;;4.17;3.80;;;13.60;99.90;;;;;;4890140;29;20550;-59
2023/04/28 03:40:23;;;;;;;10.13;4.97;;;13.40;99.90;;;;;;4892431;29;20206;-60
2023/04/28 03:42:48;;;;;;;6.00;4.07;;;13.30;99.90;;;;;;4888479;29;20190;-59
2023/04/28 03:45:14;;;;;;;6.50;4.80;;;13.70;99.90;;;;;;4885289;29;20191;-59
2023/04/28 03:47:40;;;;;;;4.90;4.40;;;13.40;99.90;;;;;;4891311;29;20298;-58
2023/04/28 03:50:06;;;;;;;5.07;4.57;;;13.10;99.90;;;;;;4890592;29;22738;-59
2023/04/28 03:52:32;;;;;;;7.10;6.40;;;13.40;99.90;;;;;;4886516;29;20278;-58
2023/04/28 03:54:57;;;;;;;5.20;4.63;;;13.20;99.90;;;;;;4889928;29;20614;-59
2023/04/28 03:57:23;;;;;;;5.20;4.80;;;13.30;99.90;;;;;;4889818;29;20202;-58
2023/04/28 03:59:48;;;;;;;5.23;4.73;;;13.10;99.90;;;;;;4889543;29;20290;-59
2023/04/28 04:02:14;;;;;;;6.53;4.90;;;12.90;99.90;;;;;;4887018;29;20528;-58
2023/04/28 04:04:39;;;;;;;5.20;4.70;;;12.90;99.90;;;;;;4889382;29;20683;-58
2023/04/28 04:07:05;;;;;;;6.17;4.70;;;13.30;99.90;;;;;;4889855;29;20194;-58
2023/04/28 04:09:31;;;;;;;7.13;4.77;;;13.10;99.90;;;;;;4884221;29;20619;-59
2023/04/28 04:11:57;;;;;;;5.87;5.00;;;13.20;99.90;;;;;;4888455;29;20183;-59
2023/04/28 04:14:23;;;;;;;4.85;4.45;;;13.20;99.90;;;;;;4887687;29;20273;-60
2023/04/28 04:16:48;;;;;;;6.67;4.57;;;13.20;99.90;;;;;;4888132;29;20306;-60
2023/04/28 04:19:14;;;;;;;6.17;5.17;;;13.10;99.90;;;;;;4886211;29;20252;-60
2023/04/28 04:21:40;;;;;;;5.20;4.67;;;13.10;99.90;;;;;;4893775;29;20321;-60
2023/04/28 04:24:06;;;;;;;7.53;6.43;;;13.20;99.90;;;;;;4885357;29;20596;-60
2023/04/28 04:26:31;;;;;;;7.63;5.93;;;13.00;99.90;;;;;;4888507;29;20342;-60
2023/04/28 04:28:57;;;;;;;5.60;4.30;;;13.30;99.90;;;;;;4887873;29;20466;-60
2023/04/28 04:31:22;;;;;;;8.47;5.27;;;13.10;99.90;;;;;;4886908;29;20653;-61
2023/04/28 04:33:48;;;;;;;5.37;4.70;;;12.90;99.90;;;;;;4886426;29;20222;-60
2023/04/28 04:36:14;;;;;;;5.77;5.27;;;13.20;99.90;;;;;;4886798;29;20661;-60
2023/04/28 04:38:40;;;;;;;5.50;5.00;;;13.10;99.90;;;;;;4889930;29;20217;-60
2023/04/28 04:41:05;;;;;;;5.50;5.00;;;13.20;99.90;;;;;;4891869;29;20724;-60
2023/04/28 04:43:31;;;;;;;4.87;4.07;;;13.20;99.90;;;;;;4891876;29;20186;-60
2023/04/28 04:45:56;;;;;;;4.83;4.40;;;13.20;99.90;;;;;;4890649;29;20464;-60
2023/04/28 04:48:22;;;;;;;5.47;4.97;;;13.10;99.90;;;;;;4894163;29;20235;-60
2023/04/28 04:50:48;;;;;;;7.17;4.50;;;13.00;99.90;;;;;;4893772;29;20195;-60
2023/04/28 04:53:13;;;;;;;5.10;4.60;;;13.10;99.90;;;;;;4889971;29;20194;-60
2023/04/28 04:55:39;;;;;;;5.53;5.03;;;13.00;99.90;;;;;;4888739;29;20758;-61
2023/04/28 04:58:05;;;;;;;5.17;4.73;;;13.10;99.90;;;;;;4889619;29;20184;-61
2023/04/28 05:00:30;;;;;;;5.23;4.67;;;12.90;99.90;;;;;;4889425;29;20214;-60
2023/04/28 05:02:56;;;;;;;5.17;4.67;;;13.30;99.90;;;;;;4888976;29;20239;-61
2023/04/28 05:05:21;;;;;;;7.80;7.00;;;13.10;99.90;;;;;;4891326;29;20665;-61
2023/04/28 05:07:47;;;;;;;4.97;4.30;;;13.30;99.90;;;;;;4891937;29;20537;-61
2023/04/28 05:10:13;;;;;;;4.93;3.87;;;13.40;99.90;;;;;;4888681;29;20290;-61
2023/04/28 05:12:38;;;;;;;4.50;4.00;;;13.60;99.90;;;;;;4894167;29;20195;-61
2023/04/28 05:15:06;;;;;;;4.33;3.90;;;13.60;99.90;;;;;;4892419;29;20229;-61
2023/04/28 05:17:32;;;;;;;6.20;5.60;;;13.40;99.90;;;;;;4893390;29;20547;-61
2023/04/28 05:19:57;;;;;;;10.07;5.33;;;13.40;99.90;;;;;;4888048;29;20203;-61
2023/04/28 05:22:23;;;;;;;5.17;4.67;;;13.30;99.90;;;;;;4886446;29;20616;-61
2023/04/28 05:24:48;;;;;;;4.80;4.40;;;13.40;99.90;;;;;;4891820;29;20203;-61
2023/04/28 05:27:14;;;;;;;6.40;5.23;;;13.60;99.90;;;;;;4891586;29;20194;-61
2023/04/28 05:29:40;;;;;;;6.83;5.27;;;13.20;99.90;;;;;;4889889;29;20219;-61
2023/04/28 05:32:05;;;;;;;5.93;4.23;;;13.50;99.90;;;;;;4889068;29;20191;-61
2023/04/28 05:34:31;;;;;;;6.07;5.37;;;13.30;99.90;;;;;;4890795;29;20458;-61
2023/04/28 05:36:57;;;;;;;5.67;5.10;;;13.30;99.90;;;;;;4890941;29;20648;-60
2023/04/28 05:39:22;;;;;;;5.57;5.07;;;13.50;99.90;;;;;;4888915;29;20727;-62
2023/04/28 05:41:48;;;;;;;6.13;5.30;;;13.40;99.90;;;;;;4890555;29;20191;-62
2023/04/28 05:44:13;;;;;;;7.00;5.20;;;13.30;99.90;;;;;;4890347;29;20182;-61
2023/04/28 05:46:39;;;;;;;5.70;5.20;;;13.30;99.90;;;;;;4889264;29;20294;-61
2023/04/28 05:49:05;;;;;;;5.73;5.17;;;13.50;99.90;;;;;;4890589;29;20299;-61
2023/04/28 05:51:30;;;;;;;5.90;5.30;;;13.50;99.90;;;;;;4893812;29;20195;-61
2023/04/28 05:53:56;;;;;;;10.23;5.80;;;13.40;99.90;;;;;;4888425;29;20198;-61
2023/04/28 05:56:22;;;;;;;7.05;6.10;;;13.50;99.90;;;;;;4890753;29;20225;-61
2023/04/28 05:58:49;;;;;;;8.27;6.07;;;13.20;99.90;;;;;;4892965;29;20210;-61
2023/04/28 06:01:15;;;;;;;15.10;6.47;;;13.10;99.90;;;;;;4890614;29;20183;-61
2023/04/28 06:03:41;;;;;;;6.07;5.57;;;13.50;99.90;;;;;;4892064;29;20655;-61
2023/04/28 06:06:08;;;;;;;7.30;5.47;;;13.50;99.90;;;;;;4889183;29;20219;-61
2023/04/28 06:08:34;;;;;;;7.55;5.35;;;13.70;99.90;;;;;;4888900;29;20215;-61
2023/04/28 06:10:59;;;;;;;5.63;5.13;;;13.70;99.90;;;;;;4887528;29;20184;-60
2023/04/28 06:13:25;;;;;;;5.13;4.23;;;13.50;99.90;;;;;;4888331;29;20232;-61
2023/04/28 06:15:51;;;;;;;4.63;4.20;;;13.50;99.90;;;;;;4886926;29;20714;-61
2023/04/28 06:18:16;;;;;;;3.77;3.47;;;13.40;99.90;;;;;;4889473;29;20198;-60
2023/04/28 06:20:42;;;;;;;6.07;4.83;;;13.60;99.90;;;;;;4903881;29;20558;-61
2023/04/28 06:23:08;;;;;;;5.23;4.00;;;13.70;99.90;;;;;;4886003;29;20218;-61
2023/04/28 06:25:35;;;;;;;7.05;5.20;;;13.60;99.90;;;;;;4889998;29;20199;-61
2023/04/28 06:28:01;;;;;;;4.60;4.20;;;14.00;99.90;;;;;;4892130;29;20202;-61
2023/04/28 06:30:26;;;;;;;6.80;4.75;;;13.90;99.90;;;;;;4888029;29;20211;-61
2023/04/28 06:32:52;;;;;;;5.97;4.83;;;14.00;99.90;;;;;;4891623;29;20210;-61
2023/04/28 06:35:18;;;;;;;5.40;4.90;;;13.90;99.90;;;;;;4885675;29;20391;-61
2023/04/28 06:37:43;;;;;;;5.37;4.70;;;13.80;99.90;;;;;;4889083;29;20235;-61
2023/04/28 06:40:09;;;;;;;5.67;4.83;;;14.00;99.90;;;;;;4887488;29;21213;-61
2023/04/28 06:42:35;;;;;;;6.07;5.47;;;14.00;99.90;;;;;;4887834;29;20203;-61
2023/04/28 06:45:01;;;;;;;6.00;5.50;;;14.30;99.90;;;;;;4887779;29;20186;-61
2023/04/28 06:47:27;;;;;;;5.18;4.60;;;14.20;99.90;;;;;;4887423;29;20187;-61
2023/04/28 06:49:52;;;;;;;5.57;4.13;;;14.30;99.90;;;;;;4888844;29;20926;-61
2023/04/28 06:52:20;;;;;;;4.20;3.80;;;14.10;99.90;;;;;;4887067;29;20273;-61
2023/04/28 06:54:46;;;;;;;5.20;4.40;;;14.30;99.90;;;;;;4886618;29;20194;-62
2023/04/28 06:57:11;;;;;;;4.50;4.00;;;14.10;99.90;;;;;;4888055;29;20607;-61
2023/04/28 06:59:37;;;;;;;5.60;5.10;;;14.50;99.90;;;;;;4888759;29;20557;-62
2023/04/28 07:02:02;;;;;;;5.63;4.93;;;14.40;99.90;;;;;;4883954;29;20331;-61
2023/04/28 07:04:28;;;;;;;5.17;4.63;;;14.40;99.90;;;;;;4889172;29;20198;-61
2023/04/28 07:06:54;;;;;;;5.30;4.87;;;14.50;99.90;;;;;;4889146;29;20187;-61
2023/04/28 07:09:20;;;;;;;6.20;5.17;;;14.30;99.90;;;;;;4887038;29;20468;-62
2023/04/28 07:11:45;;;;;;;5.80;5.13;;;14.10;99.90;;;;;;4889950;29;20692;-62
2023/04/28 07:14:11;;;;;;;5.70;5.20;;;14.30;99.90;;;;;;4887789;29;20691;-61
2023/04/28 07:16:37;;;;;;;4.50;4.10;;;14.20;99.90;;;;;;4889690;29;20839;-61
2023/04/28 07:19:02;;;;;;;5.10;4.60;;;14.40;99.90;;;;;;4886894;29;20211;-61
2023/04/28 07:21:28;;;;;;;4.23;3.83;;;14.40;99.90;;;;;;4889599;29;20198;-61
2023/04/28 07:23:57;;;;;;;4.70;4.23;;;14.30;99.90;;;;;;4888266;29;20241;-61
2023/04/28 07:26:23;;;;;;;6.97;4.70;;;14.80;99.90;;;;;;4887287;29;20262;-61
2023/04/28 07:28:48;;;;;;;5.13;4.40;;;14.70;99.90;;;;;;4888938;29;20644;-61
2023/04/28 07:31:14;;;;;;;4.33;3.93;;;14.80;99.90;;;;;;4889442;29;20187;-61
2023/04/28 07:33:40;;;;;;;5.60;3.80;;;14.80;99.90;;;;;;4887127;29;20266;-61
2023/04/28 07:36:06;;;;;;;7.10;4.00;;;14.90;99.90;;;;;;4886548;29;20223;-61
2023/04/28 07:38:34;;;;;;;5.90;4.10;;;14.90;99.90;;;;;;4886240;29;20447;-61
2023/04/28 07:41:00;;;;;;;4.68;3.90;;;15.20;99.90;;;;;;4890907;29;20179;-60
2023/04/28 07:43:25;;;;;;;4.37;3.80;;;15.20;99.90;;;;;;4889761;29;20598;-61
2023/04/28 07:45:52;;;;;;;6.90;3.63;;;14.90;99.90;;;;;;4887802;29;20206;-61
2023/04/28 07:48:18;;;;;;;4.05;3.65;;;15.30;99.90;;;;;;4892697;29;20560;-61
2023/04/28 07:50:43;;;;;;;4.23;3.83;;;15.40;99.90;;;;;;4889496;29;20290;-62
2023/04/28 07:53:09;;;;;;;4.37;3.73;;;15.10;99.90;;;;;;4886608;29;20294;-61
2023/04/28 07:55:35;;;;;;;3.50;3.20;;;14.90;99.90;;;;;;4887211;29;20215;-61
2023/04/28 07:58:01;;;;;;;4.20;3.90;;;15.20;99.90;;;;;;4902743;29;20199;-61
2023/04/28 08:00:27;;;;;;;3.60;3.30;;;15.30;99.90;;;;;;4885364;29;20508;-61
2023/04/28 08:02:52;;;;;;;6.30;3.83;;;15.00;99.90;;;;;;4886340;29;20440;-61
2023/04/28 08:05:18;;;;;;;6.63;4.57;;;15.00;99.90;;;;;;4886933;29;20295;-61
2023/04/28 08:07:43;;;;;;;3.40;3.20;;;14.80;99.90;;;;;;4889049;29;20278;-61
2023/04/28 08:10:10;;;;;;;4.53;4.13;;;14.70;99.90;;;;;;4886619;29;20218;-61
2023/04/28 08:12:37;;;;;;;5.43;4.90;;;14.80;99.90;;;;;;4886994;29;20471;-61
2023/04/28 08:15:03;;;;;;;4.72;4.18;;;14.60;99.90;;;;;;4887968;29;20556;-61
2023/04/28 08:17:28;;;;;;;4.00;3.70;;;14.70;99.90;;;;;;4888342;29;20246;-61
2023/04/28 08:19:54;;;;;;;5.90;4.80;;;14.50;99.90;;;;;;4885481;29;21056;-61
2023/04/28 08:22:20;;;;;;;4.70;4.30;;;14.40;99.90;;;;;;4884493;29;20229;-61
2023/04/28 08:24:45;;;;;;;4.00;3.70;;;14.50;99.90;;;;;;4882983;29;20190;-61
2023/04/28 08:27:11;;;;;;;4.47;4.07;;;14.50;99.90;;;;;;4887301;29;20447;-61
2023/04/28 08:29:38;;;;;;;4.20;3.80;;;14.40;99.90;;;;;;4886400;29;20719;-61
2023/04/28 08:32:05;;;;;;;4.53;4.03;;;14.30;99.90;;;;;;4881804;29;20899;-61
2023/04/28 08:34:31;;;;;;;4.63;4.22;;;14.30;99.90;;;;;;4883774;29;20195;-61
2023/04/28 08:36:57;;;;;;;4.22;3.83;;;14.50;99.90;;;;;;4885167;29;20218;-60
2023/04/28 08:39:25;;;;;;;4.80;3.70;;;14.60;99.90;;;;;;4886112;29;20211;-61
2023/04/28 08:41:51;;;;;;;5.85;4.55;;;14.60;99.90;;;;;;4886258;29;20910;-61
2023/04/28 08:44:17;;;;;;;6.53;5.00;;;14.80;99.90;;;;;;4886277;29;20278;-61
2023/04/28 08:46:43;;;;;;;7.87;7.07;;;14.90;99.90;;;;;;4885440;29;20459;-61
2023/04/28 08:49:17;;;;;;;6.13;5.63;;;14.80;99.90;;;;;;4886433;29;20898;-61
2023/04/28 08:51:54;;;;;;;8.23;7.40;;;15.50;99.90;;;;;;4883013;29;20214;-61
2023/04/28 08:54:22;;;;;;;9.02;7.55;;;14.70;99.90;;;;;;4884597;29;20192;-61
2023/04/28 08:56:47;;;;;;;8.15;7.35;;;14.90;99.90;;;;;;4887955;29;20203;-60
2023/04/28 08:59:14;;;;;;;8.60;7.80;;;14.50;99.90;;;;;;4884778;29;20253;-62
2023/04/28 09:01:40;;;;;;;9.82;7.75;;;14.60;99.90;;;;;;4885406;29;20227;-62
2023/04/28 09:04:06;;;;;;;8.43;7.57;;;14.40;99.90;;;;;;4888362;29;20191;-60
2023/04/28 09:06:37;;;;;;;11.10;10.10;;;14.60;99.90;;;;;;4886508;29;20194;-61
2023/04/28 09:09:23;;;;;;;7.70;7.00;;;14.70;99.90;;;;;;4886218;29;20203;-61
2023/04/28 09:11:59;;;;;;;7.85;7.15;;;14.50;99.90;;;;;;4885522;29;20198;-61
2023/04/28 09:14:34;;;;;;;7.82;7.03;;;14.60;99.90;;;;;;4885880;29;20229;-60
2023/04/28 09:17:00;;;;;;;7.88;7.07;;;14.50;99.90;;;;;;4887594;29;20249;-61
2023/04/28 09:19:33;;;;;;;7.10;6.50;;;14.60;99.90;;;;;;4885128;29;20204;-60
2023/04/28 09:21:59;;;;;;;8.02;6.60;;;14.60;99.90;;;;;;4886325;29;20235;-60
2023/04/28 09:24:45;;;;;;;8.80;7.25;;;14.30;99.90;;;;;;4886915;29;20211;-60
2023/04/28 09:27:11;;;;;;;7.03;6.35;;;14.70;99.90;;;;;;4888854;29;20196;-60
2023/04/28 09:29:38;;;;;;;8.43;7.63;;;14.70;99.90;;;;;;4890924;29;20210;-60
2023/04/28 09:32:17;;;;;;;8.07;7.10;;;14.60;99.90;;;;;;4887473;29;20235;-61
2023/04/28 09:34:45;;;;;;;7.80;7.05;;;14.50;99.90;;;;;;4890051;29;20195;-60
2023/04/28 09:37:18;;;;;;;7.35;6.65;;;14.70;99.90;;;;;;4887569;29;20226;-60
2023/04/28 09:39:49;;;;;;;6.50;5.88;;;15.00;99.90;;;;;;4889549;29;20210;-60
2023/04/28 09:42:37;;;;;;;6.90;6.05;;;15.30;99.90;;;;;;4891450;29;20210;-60
2023/04/28 09:45:07;;;;;;;6.22;5.72;;;15.70;99.90;;;;;;4888510;29;20191;-60
2023/04/28 09:47:45;;;;;;;7.10;6.45;;;16.10;99.90;;;;;;4891456;29;20194;-60
2023/04/28 09:50:16;;;;;;;8.13;7.18;;;16.70;99.90;;;;;;4890207;29;20544;-61
2023/04/28 09:52:55;;;;;;;6.15;5.55;;;16.20;99.90;;;;;;4890294;29;20187;-61
2023/04/28 09:55:22;;;;;;;7.90;7.20;;;16.90;99.90;;;;;;4888879;29;20193;-62
2023/04/28 09:57:51;;;;;;;9.18;8.40;;;17.70;99.90;;;;;;4889525;29;20187;-61
2023/04/28 10:00:18;;;;;;;8.95;7.15;;;18.40;99.90;;;;;;4886285;29;20700;-61
2023/04/28 10:02:44;;;;;;;8.38;7.57;;;18.60;99.90;;;;;;4887080;29;20278;-61
2023/04/28 10:05:11;;;;;;;5.17;4.73;;;18.90;99.90;;;;;;4887797;29;20278;-61
2023/04/28 10:07:37;;;;;;;3.90;3.55;;;19.20;99.90;;;;;;4888925;29;20492;-61
2023/04/28 10:10:04;;;;;;;5.10;4.60;;;19.30;99.90;;;;;;4885928;29;20207;-62
2023/04/28 10:12:31;;;;;;;4.68;4.07;;;19.40;99.90;;;;;;4886430;29;20582;-61
2023/04/28 10:14:58;;;;;;;3.53;2.78;;;19.90;99.90;;;;;;4888678;29;20183;-61
2023/04/28 10:17:24;;;;;;;2.75;2.20;;;19.60;99.90;;;;;;4887113;29;20218;-62
2023/04/28 10:19:52;;;;;;;2.73;2.03;;;19.50;99.90;;;;;;4887736;29;20254;-61
2023/04/28 10:22:21;;;;;;;4.03;2.72;;;19.30;99.90;;;;;;4889219;29;20570;-62
2023/04/28 10:24:58;;;;;;;2.53;2.33;;;19.20;99.90;;;;;;4889512;29;20200;-63
2023/04/28 10:27:29;;;;;;;3.90;2.30;;;19.20;99.90;;;;;;4888681;29;20677;-61
2023/04/28 10:30:22;;;;;;;2.97;2.75;;;19.00;99.90;;;;;;4890563;29;20226;-61
2023/04/28 10:33:10;;;;;;;3.33;2.88;;;18.90;99.90;;;;;;4889514;29;20198;-61
2023/04/28 10:35:46;;;;;;;1.75;1.50;;;18.90;99.90;;;;;;4890155;29;20225;-62
2023/04/28 10:38:12;;;;;;;3.58;1.75;;;19.20;99.90;;;;;;4888595;29;20190;-62
2023/04/28 10:40:39;;;;;;;1.58;1.48;;;19.10;99.90;;;;;;4887951;29;20214;-61
2023/04/28 10:43:12;;;;;;;2.67;2.47;;;19.20;99.90;;;;;;4891585;29;20196;-61
2023/04/28 10:45:54;;;;;;;3.13;2.42;;;19.20;99.90;;;;;;4883814;29;20190;-62
2023/04/28 10:48:22;;;;;;;2.20;2.00;;;18.90;99.90;;;;;;4886134;29;20219;-62
2023/04/28 10:51:03;;;;;;;4.05;3.75;;;18.80;99.90;;;;;;4888814;29;20278;-61
2023/04/28 10:53:43;;;;;;;6.15;3.95;;;19.00;99.90;;;;;;4887406;29;20194;-62
2023/04/28 10:56:20;;;;;;;2.60;2.40;;;19.30;99.90;;;;;;4889563;29;20211;-62
2023/04/28 10:58:47;;;;;;;2.03;1.50;;;19.30;99.90;;;;;;4886425;29;20241;-62
2023/04/28 11:01:30;;;;;;;1.80;1.70;;;20.10;99.90;;;;;;4885737;29;20183;-61
2023/04/28 11:04:10;;;;;;;1.85;1.75;;;19.90;99.90;;;;;;4887604;29;20184;-62
2023/04/28 11:06:38;;;;;;;1.67;1.40;;;19.80;99.90;;;;;;4890265;29;20562;-61
2023/04/28 11:09:13;;;;;;;1.63;1.50;;;19.80;99.90;;;;;;4888341;29;20310;-61
2023/04/28 11:11:59;;;;;;;1.75;1.65;;;19.70;99.90;;;;;;4888114;29;20190;-63
2023/04/28 11:14:25;;;;;;;1.45;1.35;;;20.10;99.90;;;;;;4887182;29;20232;-61
2023/04/28 11:16:53;;;;;;;1.60;1.50;;;20.10;99.90;;;;;;4883484;29;20338;-61
2023/04/28 11:19:23;;;;;;;1.20;1.13;;;20.00;99.90;;;;;;4889429;29;20219;-62
2023/04/28 11:21:50;;;;;;;1.27;1.10;;;20.20;99.90;;;;;;4890197;29;20702;-61
2023/04/28 11:24:16;;;;;;;1.30;1.10;;;20.20;99.90;;;;;;4887318;29;20203;-61
2023/04/28 11:26:42;;;;;;;1.43;1.33;;;20.30;99.90;;;;;;4888752;29;20192;-61
2023/04/28 11:29:10;;;;;;;1.35;0.95;;;20.00;99.90;;;;;;4887167;29;20211;-61
2023/04/28 11:31:37;;;;;;;1.00;0.90;;;20.20;99.90;;;;;;4885634;29;20238;-61
2023/04/28 11:34:04;;;;;;;2.25;0.88;;;20.40;99.90;;;;;;4885807;29;20201;-62
2023/04/28 11:36:34;;;;;;;1.35;0.70;;;20.50;99.90;;;;;;4887109;29;20225;-61
2023/04/28 11:39:06;;;;;;;2.50;1.47;;;20.30;99.90;;;;;;4887561;29;20203;-60
2023/04/28 11:41:35;;;;;;;1.15;0.90;;;20.40;99.90;;;;;;4888263;29;20527;-61
2023/04/28 11:44:14;;;;;;;2.60;2.40;;;20.80;99.90;;;;;;4883339;29;20187;-61
2023/04/28 11:46:54;;;;;;;3.15;1.33;;;20.20;99.90;;;;;;4882495;29;20669;-61
2023/04/28 11:49:23;;;;;;;1.25;1.10;;;20.30;99.90;;;;;;4886910;29;20222;-62
2023/04/28 11:51:50;;;;;;;3.10;1.50;;;20.30;99.90;;;;;;4887272;29;20681;-61
2023/04/28 11:54:23;;;;;;;1.20;1.10;;;20.80;99.90;;;;;;4886739;29;20582;-62
2023/04/28 11:56:50;;;;;;;2.20;1.20;;;20.60;99.90;;;;;;4887841;29;20475;-61
2023/04/28 11:59:16;;;;;;;1.10;0.87;;;21.00;99.90;;;;;;4888254;29;20230;-61
2023/04/28 12:01:48;;;;;;;3.10;1.00;;;20.90;99.90;;;;;;4887445;29;20490;-61
2023/04/28 12:04:26;;;;;;;1.83;1.73;;;20.80;99.90;;;;;;4887258;29;20190;-61
2023/04/28 12:07:15;;;;;;;1.53;1.43;;;21.00;99.90;;;;;;4893224;29;20445;-62
2023/04/28 12:09:43;;;;;;;1.20;0.70;;;21.00;99.90;;;;;;4887900;29;20496;-61
2023/04/28 12:12:11;;;;;;;1.20;0.87;;;21.00;99.90;;;;;;4887743;29;20441;-62
2023/04/28 12:15:00;;;;;;;3.23;2.03;;;20.90;99.90;;;;;;4885693;29;20439;-61
2023/04/28 12:17:45;;;;;;;1.95;1.73;;;20.90;99.90;;;;;;4887947;29;20479;-61
2023/04/28 12:20:31;;;;;;;4.68;1.50;;;20.70;99.90;;;;;;4886027;29;20721;-63
2023/04/28 12:22:57;;;;;;;1.00;0.90;;;20.60;99.90;;;;;;4887193;29;20183;-60
2023/04/28 12:25:23;;;;;;;2.33;1.17;;;20.70;99.90;;;;;;4887116;29;20221;-61
2023/04/28 12:28:06;;;;;;;1.33;1.10;;;20.80;99.90;;;;;;4888151;29;20692;-63
2023/04/28 12:30:33;;;;;;;1.40;1.10;;;20.80;99.90;;;;;;4885856;29;20553;-62
2023/04/28 12:32:59;;;;;;;2.30;1.25;;;20.50;99.90;;;;;;4884476;29;20187;-62
2023/04/28 12:35:26;;;;;;;4.00;1.40;;;20.40;99.90;;;;;;4889050;29;20192;-63
2023/04/28 12:37:54;;;;;;;2.40;0.90;;;20.90;99.90;;;;;;4885674;29;20687;-60
2023/04/28 12:40:20;;;;;;;1.00;0.90;;;21.20;99.90;;;;;;4888671;29;20602;-60
2023/04/28 12:42:45;;;;;;;2.57;1.17;;;21.80;99.90;;;;;;4884398;29;20446;-64
2023/04/28 12:45:11;;;;;;;2.20;1.63;;;21.40;99.90;;;;;;4886461;29;20985;-63
2023/04/28 12:47:38;;;;;;;2.63;1.90;;;21.40;99.90;;;;;;4888502;29;20235;-60